Terminal Aerodrome Forecast
Issued by NWS

Current Version | Previous Version | Graphics & Text | Print | Product List | Glossary On
Versions: 1 2 3 4 5 6 7 8 9 10 11 12 13 14 15 16 17 18 19
000
FTUS41 KILN 141700 RRA
TAFLCK
TAF
KLCK 141741Z 1418/1518 22018G28KT 5SM -SHRA OVC015
      TEMPO 1418/1422 OVC025
     FM142200 25010G18KT P6SM VCSH OVC022
     FM150300 33010G18KT P6SM -RA OVC012
     FM150500 33012G20KT 4SM -RA BR OVC008
     FM150900 33017G27KT 3SM -RASN BR OVC008
     FM151000 32017G27KT 1SM -SN OVC006
     FM151200 32015G25KT P6SM OVC012
     FM151400 31014G24KT P6SM OVC025
     FM151700 31012G22KT P6SM OVC035=

USA.gov is the U.S. government's official web portal to all federal, state and local government web resources and services.